sensor_id;sensor_type;location;lat;lon;timestamp;temperature;humidity
70867;HTU21D;58487;53.474;49.470;2023-02-23T00:01:20;-11.67;118.99
70867;HTU21D;58487;53.474;49.470;2023-02-23T00:03:48;-11.73;118.99
70867;HTU21D;58487;53.474;49.470;2023-02-23T00:06:15;-11.74;118.99
70867;HTU21D;58487;53.474;49.470;2023-02-23T00:08:41;-11.68;118.99
70867;HTU21D;58487;53.474;49.470;2023-02-23T00:11:10;-11.67;118.99
70867;HTU21D;58487;53.474;49.470;2023-02-23T00:13:40;-11.74;118.99
70867;HTU21D;58487;53.474;49.470;2023-02-23T00:16:13;-11.75;118.99
70867;HTU21D;58487;53.474;49.470;2023-02-23T00:18:45;-11.79;118.99
70867;HTU21D;58487;53.474;49.470;2023-02-23T00:21:33;-11.82;118.99
70867;HTU21D;58487;53.474;49.470;2023-02-23T00:24:05;-11.88;118.99
70867;HTU21D;58487;53.474;49.470;2023-02-23T00:26:35;-11.84;118.99
70867;HTU21D;58487;53.474;49.470;2023-02-23T00:29:05;-11.84;118.99
70867;HTU21D;58487;53.474;49.470;2023-02-23T00:31:31;-11.80;118.99
70867;HTU21D;58487;53.474;49.470;2023-02-23T00:34:01;-11.81;118.99
70867;HTU21D;58487;53.474;49.470;2023-02-23T00:36:32;-11.88;118.99
70867;HTU21D;58487;53.474;49.470;2023-02-23T00:39:01;-11.84;118.99
70867;HTU21D;58487;53.474;49.470;2023-02-23T00:41:27;-11.85;118.99
70867;HTU21D;58487;53.474;49.470;2023-02-23T00:43:58;-11.83;118.99
70867;HTU21D;58487;53.474;49.470;2023-02-23T00:46:27;-11.83;118.99
70867;HTU21D;58487;53.474;49.470;2023-02-23T00:48:55;-11.85;118.99
70867;HTU21D;58487;53.474;49.470;2023-02-23T00:51:22;-11.92;118.99
70867;HTU21D;58487;53.474;49.470;2023-02-23T00:53:48;-11.91;118.99
70867;HTU21D;58487;53.474;49.470;2023-02-23T00:56:15;-11.93;118.99
70867;HTU21D;58487;53.474;49.470;2023-02-23T00:58:41;-11.89;118.99
70867;HTU21D;58487;53.474;49.470;2023-02-23T01:01:09;-11.89;118.99
70867;HTU21D;58487;53.474;49.470;2023-02-23T01:03:36;-11.93;118.99
70867;HTU21D;58487;53.474;49.470;2023-02-23T01:06:06;-11.94;118.99
70867;HTU21D;58487;53.474;49.470;2023-02-23T01:08:33;-11.94;118.99
70867;HTU21D;58487;53.474;49.470;2023-02-23T01:11:05;-11.93;118.99
70867;HTU21D;58487;53.474;49.470;2023-02-23T01:13:32;-11.91;118.99
70867;HTU21D;58487;53.474;49.470;2023-02-23T01:15:58;-11.94;118.99
70867;HTU21D;58487;53.474;49.470;2023-02-23T01:18:24;-11.91;118.99
70867;HTU21D;58487;53.474;49.470;2023-02-23T01:20:50;-11.95;118.99
70867;HTU21D;58487;53.474;49.470;2023-02-23T01:23:16;-11.97;118.99
70867;HTU21D;58487;53.474;49.470;2023-02-23T01:25:43;-12.04;118.99
70867;HTU21D;58487;53.474;49.470;2023-02-23T01:28:10;-12.06;118.99
70867;HTU21D;58487;53.474;49.470;2023-02-23T01:30:37;-12.03;118.99
70867;HTU21D;58487;53.474;49.470;2023-02-23T01:33:04;-12.05;118.99
70867;HTU21D;58487;53.474;49.470;2023-02-23T01:35:31;-11.97;118.99
70867;HTU21D;58487;53.474;49.470;2023-02-23T01:37:58;-12.01;118.99
70867;HTU21D;58487;53.474;49.470;2023-02-23T01:40:26;-12.17;118.99
70867;HTU21D;58487;53.474;49.470;2023-02-23T01:42:59;-12.23;118.99
70867;HTU21D;58487;53.474;49.470;2023-02-23T01:45:33;-12.18;118.99
70867;HTU21D;58487;53.474;49.470;2023-02-23T01:50:53;-12.24;118.99
70867;HTU21D;58487;53.474;49.470;2023-02-23T01:53:21;-12.19;118.99
70867;HTU21D;58487;53.474;49.470;2023-02-23T01:55:50;-12.15;118.99
70867;HTU21D;58487;53.474;49.470;2023-02-23T01:58:21;-12.25;118.99
70867;HTU21D;58487;53.474;49.470;2023-02-23T02:00:50;-12.24;118.99
70867;HTU21D;58487;53.474;49.470;2023-02-23T02:03:40;-12.32;118.99
70867;HTU21D;58487;53.474;49.470;2023-02-23T02:06:09;-12.32;118.99
70867;HTU21D;58487;53.474;49.470;2023-02-23T02:08:40;-12.33;118.99
70867;HTU21D;58487;53.474;49.470;2023-02-23T02:11:12;-12.26;118.99
70867;HTU21D;58487;53.474;49.470;2023-02-23T02:14:17;-12.28;118.99
70867;HTU21D;58487;53.474;49.470;2023-02-23T02:36:56;-12.66;118.99
70867;HTU21D;58487;53.474;49.470;2023-02-23T02:42:33;-12.62;118.99
70867;HTU21D;58487;53.474;49.470;2023-02-23T02:50:13;-12.59;118.99
70867;HTU21D;58487;53.474;49.470;2023-02-23T02:52:56;-12.62;118.99
70867;HTU21D;58487;53.474;49.470;2023-02-23T02:55:26;-12.65;118.99
70867;HTU21D;58487;53.474;49.470;2023-02-23T02:57:56;-12.67;118.99
70867;HTU21D;58487;53.474;49.470;2023-02-23T03:00:37;-12.73;118.99
70867;HTU21D;58487;53.474;49.470;2023-02-23T03:03:28;-12.74;118.99
70867;HTU21D;58487;53.474;49.470;2023-02-23T03:06:14;-12.72;118.99
70867;HTU21D;58487;53.474;49.470;2023-02-23T03:17:45;-12.83;118.99
70867;HTU21D;58487;53.474;49.470;2023-02-23T03:23:36;-12.98;118.99
70867;HTU21D;58487;53.474;49.470;2023-02-23T03:26:36;-12.94;118.99
70867;HTU21D;58487;53.474;49.470;2023-02-23T03:29:35;-12.89;118.99
70867;HTU21D;58487;53.474;49.470;2023-02-23T03:38:35;-12.97;118.99
70867;HTU21D;58487;53.474;49.470;2023-02-23T03:41:23;-12.92;118.99
70867;HTU21D;58487;53.474;49.470;2023-02-23T03:44:14;-12.91;118.99
70867;HTU21D;58487;53.474;49.470;2023-02-23T03:47:02;-12.92;118.99
70867;HTU21D;58487;53.474;49.470;2023-02-23T03:49:49;-12.96;118.99
70867;HTU21D;58487;53.474;49.470;2023-02-23T03:52:40;-12.92;118.99
70867;HTU21D;58487;53.474;49.470;2023-02-23T03:55:31;-12.97;118.99
70867;HTU21D;58487;53.474;49.470;2023-02-23T03:58:21;-12.94;118.99
70867;HTU21D;58487;53.474;49.470;2023-02-23T04:01:08;-12.95;118.99
70867;HTU21D;58487;53.474;49.470;2023-02-23T04:03:55;-13.00;118.99
70867;HTU21D;58487;53.474;49.470;2023-02-23T04:06:44;-12.96;118.99
70867;HTU21D;58487;53.474;49.470;2023-02-23T04:09:30;-12.98;118.99
70867;HTU21D;58487;53.474;49.470;2023-02-23T04:12:37;-13.00;118.99
70867;HTU21D;58487;53.474;49.470;2023-02-23T04:15:28;-13.06;118.99
70867;HTU21D;58487;53.474;49.470;2023-02-23T04:17:55;-13.12;118.99
70867;HTU21D;58487;53.474;49.470;2023-02-23T04:20:21;-13.10;118.99
70867;HTU21D;58487;53.474;49.470;2023-02-23T04:22:47;-13.04;118.99
70867;HTU21D;58487;53.474;49.470;2023-02-23T04:25:15;-13.03;118.99
70867;HTU21D;58487;53.474;49.470;2023-02-23T04:27:41;-13.06;118.99
70867;HTU21D;58487;53.474;49.470;2023-02-23T04:30:08;-13.02;118.99
70867;HTU21D;58487;53.474;49.470;2023-02-23T04:32:36;-13.08;118.99
70867;HTU21D;58487;53.474;49.470;2023-02-23T04:35:03;-13.10;118.99
70867;HTU21D;58487;53.474;49.470;2023-02-23T04:37:29;-13.11;118.99
70867;HTU21D;58487;53.474;49.470;2023-02-23T04:39:55;-13.06;118.99
70867;HTU21D;58487;53.474;49.470;2023-02-23T04:42:21;-13.04;118.99
70867;HTU21D;58487;53.474;49.470;2023-02-23T04:44:47;-13.08;118.99
70867;HTU21D;58487;53.474;49.470;2023-02-23T04:47:15;-13.10;118.99
70867;HTU21D;58487;53.474;49.470;2023-02-23T04:49:42;-13.15;118.99
70867;HTU21D;58487;53.474;49.470;2023-02-23T04:52:08;-13.09;118.99
70867;HTU21D;58487;53.474;49.470;2023-02-23T04:54:37;-13.10;118.99
70867;HTU21D;58487;53.474;49.470;2023-02-23T04:57:04;-13.14;118.99
70867;HTU21D;58487;53.474;49.470;2023-02-23T04:59:31;-13.13;118.99
70867;HTU21D;58487;53.474;49.470;2023-02-23T05:01:57;-13.09;118.99
70867;HTU21D;58487;53.474;49.470;2023-02-23T05:04:23;-13.13;118.99
70867;HTU21D;58487;53.474;49.470;2023-02-23T05:06:49;-13.07;118.99
70867;HTU21D;58487;53.474;49.470;2023-02-23T05:09:15;-13.06;118.99
70867;HTU21D;58487;53.474;49.470;2023-02-23T05:11:41;-13.06;118.99
70867;HTU21D;58487;53.474;49.470;2023-02-23T05:14:07;-13.10;118.99
70867;HTU21D;58487;53.474;49.470;2023-02-23T05:16:35;-13.12;118.99
70867;HTU21D;58487;53.474;49.470;2023-02-23T05:19:01;-13.16;118.99
70867;HTU21D;58487;53.474;49.470;2023-02-23T05:21:27;-13.02;118.99
70867;HTU21D;58487;53.474;49.470;2023-02-23T05:23:53;-13.12;118.99
70867;HTU21D;58487;53.474;49.470;2023-02-23T05:26:19;-13.09;118.99
70867;HTU21D;58487;53.474;49.470;2023-02-23T05:28:45;-13.07;118.99
70867;HTU21D;58487;53.474;49.470;2023-02-23T05:31:11;-12.98;118.99
70867;HTU21D;58487;53.474;49.470;2023-02-23T05:33:37;-12.94;118.99
70867;HTU21D;58487;53.474;49.470;2023-02-23T05:36:12;-12.95;118.99
70867;HTU21D;58487;53.474;49.470;2023-02-23T05:38:41;-13.06;118.99
70867;HTU21D;58487;53.474;49.470;2023-02-23T05:41:11;-13.04;118.99
70867;HTU21D;58487;53.474;49.470;2023-02-23T05:43:37;-13.01;118.99
70867;HTU21D;58487;53.474;49.470;2023-02-23T05:46:15;-12.92;118.99
70867;HTU21D;58487;53.474;49.470;2023-02-23T05:48:42;-12.96;118.99
70867;HTU21D;58487;53.474;49.470;2023-02-23T05:51:10;-12.95;118.99
70867;HTU21D;58487;53.474;49.470;2023-02-23T05:53:37;-12.95;118.99
70867;HTU21D;58487;53.474;49.470;2023-02-23T05:56:06;-12.95;118.99
70867;HTU21D;58487;53.474;49.470;2023-02-23T05:58:33;-12.94;118.99
70867;HTU21D;58487;53.474;49.470;2023-02-23T06:00:59;-12.98;118.99
70867;HTU21D;58487;53.474;49.470;2023-02-23T06:03:26;-12.98;118.99
70867;HTU21D;58487;53.474;49.470;2023-02-23T06:05:53;-12.97;118.99
70867;HTU21D;58487;53.474;49.470;2023-02-23T06:08:20;-12.93;118.99
70867;HTU21D;58487;53.474;49.470;2023-02-23T06:10:46;-12.84;118.99
70867;HTU21D;58487;53.474;49.470;2023-02-23T06:13:13;-12.85;118.99
70867;HTU21D;58487;53.474;49.470;2023-02-23T06:15:39;-12.87;118.99
70867;HTU21D;58487;53.474;49.470;2023-02-23T06:18:06;-12.89;118.99
70867;HTU21D;58487;53.474;49.470;2023-02-23T06:20:34;-13.01;118.99
70867;HTU21D;58487;53.474;49.470;2023-02-23T06:23:00;-13.01;118.99
70867;HTU21D;58487;53.474;49.470;2023-02-23T06:25:26;-12.92;118.99
70867;HTU21D;58487;53.474;49.470;2023-02-23T06:27:52;-13.08;118.99
70867;HTU21D;58487;53.474;49.470;2023-02-23T06:30:19;-12.99;118.99
70867;HTU21D;58487;53.474;49.470;2023-02-23T06:32:45;-12.97;118.99
70867;HTU21D;58487;53.474;49.470;2023-02-23T06:35:12;-12.99;118.99
70867;HTU21D;58487;53.474;49.470;2023-02-23T06:37:38;-12.93;118.99
70867;HTU21D;58487;53.474;49.470;2023-02-23T06:40:05;-12.96;118.99
70867;HTU21D;58487;53.474;49.470;2023-02-23T06:42:31;-13.01;118.99
70867;HTU21D;58487;53.474;49.470;2023-02-23T06:44:59;-13.07;118.99
70867;HTU21D;58487;53.474;49.470;2023-02-23T06:47:25;-12.97;118.99
70867;HTU21D;58487;53.474;49.470;2023-02-23T06:49:51;-12.98;118.99
70867;HTU21D;58487;53.474;49.470;2023-02-23T06:52:17;-13.03;118.99
70867;HTU21D;58487;53.474;49.470;2023-02-23T06:54:43;-12.86;118.99
70867;HTU21D;58487;53.474;49.470;2023-02-23T06:57:10;-12.93;118.99
70867;HTU21D;58487;53.474;49.470;2023-02-23T06:59:36;-12.94;118.99
70867;HTU21D;58487;53.474;49.470;2023-02-23T07:02:04;-13.03;118.99
70867;HTU21D;58487;53.474;49.470;2023-02-23T07:04:31;-13.06;118.99
70867;HTU21D;58487;53.474;49.470;2023-02-23T07:06:58;-12.95;118.99
70867;HTU21D;58487;53.474;49.470;2023-02-23T07:09:24;-12.99;118.99
70867;HTU21D;58487;53.474;49.470;2023-02-23T07:11:50;-13.06;118.99
70867;HTU21D;58487;53.474;49.470;2023-02-23T07:14:16;-13.06;118.99
70867;HTU21D;58487;53.474;49.470;2023-02-23T07:16:43;-13.12;118.99
70867;HTU21D;58487;53.474;49.470;2023-02-23T07:19:09;-13.00;118.99
70867;HTU21D;58487;53.474;49.470;2023-02-23T07:21:35;-13.02;118.99
70867;HTU21D;58487;53.474;49.470;2023-02-23T07:24:02;-13.12;118.99
70867;HTU21D;58487;53.474;49.470;2023-02-23T07:26:29;-13.02;118.99
70867;HTU21D;58487;53.474;49.470;2023-02-23T07:28:55;-13.03;118.99
70867;HTU21D;58487;53.474;49.470;2023-02-23T07:31:21;-13.00;118.99
70867;HTU21D;58487;53.474;49.470;2023-02-23T07:33:47;-13.02;118.99
70867;HTU21D;58487;53.474;49.470;2023-02-23T07:36:14;-13.03;118.99
70867;HTU21D;58487;53.474;49.470;2023-02-23T07:38:40;-13.12;118.99
70867;HTU21D;58487;53.474;49.470;2023-02-23T07:41:06;-12.95;118.99
70867;HTU21D;58487;53.474;49.470;2023-02-23T07:43:32;-12.99;118.99
70867;HTU21D;58487;53.474;49.470;2023-02-23T07:45:59;-12.88;118.99
70867;HTU21D;58487;53.474;49.470;2023-02-23T07:48:26;-12.95;118.99
70867;HTU21D;58487;53.474;49.470;2023-02-23T07:50:52;-13.01;118.99
70867;HTU21D;58487;53.474;49.470;2023-02-23T07:53:18;-12.88;118.99
70867;HTU21D;58487;53.474;49.470;2023-02-23T07:55:44;-12.81;118.99
70867;HTU21D;58487;53.474;49.470;2023-02-23T07:58:11;-12.82;118.99
70867;HTU21D;58487;53.474;49.470;2023-02-23T08:00:39;-13.01;118.99
70867;HTU21D;58487;53.474;49.470;2023-02-23T08:03:06;-12.92;118.99
70867;HTU21D;58487;53.474;49.470;2023-02-23T08:05:32;-12.93;118.99
70867;HTU21D;58487;53.474;49.470;2023-02-23T08:07:58;-12.98;118.99
70867;HTU21D;58487;53.474;49.470;2023-02-23T08:10:24;-13.01;118.99
70867;HTU21D;58487;53.474;49.470;2023-02-23T08:12:51;-12.92;118.99
70867;HTU21D;58487;53.474;49.470;2023-02-23T08:15:17;-12.75;118.99
70867;HTU21D;58487;53.474;49.470;2023-02-23T08:17:43;-12.95;118.99
70867;HTU21D;58487;53.474;49.470;2023-02-23T08:20:10;-12.78;118.99
70867;HTU21D;58487;53.474;49.470;2023-02-23T08:22:36;-12.86;118.99
70867;HTU21D;58487;53.474;49.470;2023-02-23T08:25:02;-12.79;118.99
70867;HTU21D;58487;53.474;49.470;2023-02-23T08:27:35;-12.64;118.99
70867;HTU21D;58487;53.474;49.470;2023-02-23T08:30:02;-12.60;118.99
70867;HTU21D;58487;53.474;49.470;2023-02-23T08:32:33;-12.58;118.99
70867;HTU21D;58487;53.474;49.470;2023-02-23T08:35:00;-12.55;118.99
70867;HTU21D;58487;53.474;49.470;2023-02-23T08:37:28;-12.44;118.99
70867;HTU21D;58487;53.474;49.470;2023-02-23T08:39:55;-12.39;118.99
70867;HTU21D;58487;53.474;49.470;2023-02-23T08:42:21;-12.51;118.99
70867;HTU21D;58487;53.474;49.470;2023-02-23T08:44:47;-12.44;118.99
70867;HTU21D;58487;53.474;49.470;2023-02-23T08:47:16;-12.44;118.99
70867;HTU21D;58487;53.474;49.470;2023-02-23T08:49:52;-12.41;118.99
70867;HTU21D;58487;53.474;49.470;2023-02-23T08:52:21;-12.38;118.99
70867;HTU21D;58487;53.474;49.470;2023-02-23T08:54:51;-12.34;118.99
70867;HTU21D;58487;53.474;49.470;2023-02-23T08:57:17;-12.18;118.99
70867;HTU21D;58487;53.474;49.470;2023-02-23T08:59:44;-12.11;118.99
70867;HTU21D;58487;53.474;49.470;2023-02-23T09:02:12;-12.22;118.99
70867;HTU21D;58487;53.474;49.470;2023-02-23T09:04:39;-12.10;118.99
70867;HTU21D;58487;53.474;49.470;2023-02-23T09:07:08;-12.20;118.99
70867;HTU21D;58487;53.474;49.470;2023-02-23T09:09:34;-12.04;118.99
70867;HTU21D;58487;53.474;49.470;2023-02-23T09:12:00;-11.94;118.99
70867;HTU21D;58487;53.474;49.470;2023-02-23T09:14:26;-11.83;118.99
70867;HTU21D;58487;53.474;49.470;2023-02-23T09:16:53;-11.88;118.99
70867;HTU21D;58487;53.474;49.470;2023-02-23T09:19:19;-11.80;118.99
70867;HTU21D;58487;53.474;49.470;2023-02-23T09:21:47;-12.08;118.99
70867;HTU21D;58487;53.474;49.470;2023-02-23T09:24:14;-11.98;118.99
70867;HTU21D;58487;53.474;49.470;2023-02-23T09:26:43;-11.85;118.99
70867;HTU21D;58487;53.474;49.470;2023-02-23T09:29:09;-11.93;118.99
70867;HTU21D;58487;53.474;49.470;2023-02-23T09:31:37;-12.03;118.99
70867;HTU21D;58487;53.474;49.470;2023-02-23T09:34:03;-12.01;118.99
70867;HTU21D;58487;53.474;49.470;2023-02-23T09:36:30;-11.83;118.99
70867;HTU21D;58487;53.474;49.470;2023-02-23T09:38:57;-11.89;118.99
70867;HTU21D;58487;53.474;49.470;2023-02-23T09:44:20;-11.99;118.99
70867;HTU21D;58487;53.474;49.470;2023-02-23T09:46:53;-11.98;118.99
70867;HTU21D;58487;53.474;49.470;2023-02-23T09:49:27;-11.67;118.99
70867;HTU21D;58487;53.474;49.470;2023-02-23T09:51:57;-11.75;118.99
70867;HTU21D;58487;53.474;49.470;2023-02-23T09:54:28;-11.93;118.99
70867;HTU21D;58487;53.474;49.470;2023-02-23T09:56:55;-11.68;118.99
70867;HTU21D;58487;53.474;49.470;2023-02-23T09:59:23;-11.56;118.99
70867;HTU21D;58487;53.474;49.470;2023-02-23T10:04:19;-11.55;118.99
70867;HTU21D;58487;53.474;49.470;2023-02-23T10:06:53;-11.22;118.99
70867;HTU21D;58487;53.474;49.470;2023-02-23T10:12:15;-10.95;118.99
70867;HTU21D;58487;53.474;49.470;2023-02-23T10:15:03;-11.01;118.99
70867;HTU21D;58487;53.474;49.470;2023-02-23T10:20:57;-10.44;118.99
70867;HTU21D;58487;53.474;49.470;2023-02-23T10:23:53;-10.28;118.99
70867;HTU21D;58487;53.474;49.470;2023-02-23T10:26:24;-10.23;118.99
70867;HTU21D;58487;53.474;49.470;2023-02-23T10:28:57;-10.22;118.99
70867;HTU21D;58487;53.474;49.470;2023-02-23T10:31:33;-10.16;118.99
70867;HTU21D;58487;53.474;49.470;2023-02-23T10:34:05;-10.29;118.99
70867;HTU21D;58487;53.474;49.470;2023-02-23T10:36:41;-9.89;118.99
70867;HTU21D;58487;53.474;49.470;2023-02-23T10:39:11;-10.17;118.99
70867;HTU21D;58487;53.474;49.470;2023-02-23T10:41:48;-10.20;118.99
70867;HTU21D;58487;53.474;49.470;2023-02-23T10:44:24;-10.44;118.99
70867;HTU21D;58487;53.474;49.470;2023-02-23T10:46:57;-10.64;118.99
70867;HTU21D;58487;53.474;49.470;2023-02-23T10:52:11;-10.76;118.99
70867;HTU21D;58487;53.474;49.470;2023-02-23T10:54:41;-10.48;118.99
70867;HTU21D;58487;53.474;49.470;2023-02-23T10:57:11;-10.31;118.99
70867;HTU21D;58487;53.474;49.470;2023-02-23T10:59:53;-10.30;118.99
70867;HTU21D;58487;53.474;49.470;2023-02-23T11:02:26;-10.18;118.99
70867;HTU21D;58487;53.474;49.470;2023-02-23T11:04:57;-10.29;118.99
70867;HTU21D;58487;53.474;49.470;2023-02-23T11:07:27;-10.28;118.99
70867;HTU21D;58487;53.474;49.470;2023-02-23T11:12:41;-10.43;118.99
70867;HTU21D;58487;53.474;49.470;2023-02-23T11:15:28;-10.45;118.99
70867;HTU21D;58487;53.474;49.470;2023-02-23T11:18:02;-10.52;118.99
70867;HTU21D;58487;53.474;49.470;2023-02-23T11:20:35;-10.55;118.99
70867;HTU21D;58487;53.474;49.470;2023-02-23T11:23:17;-10.44;118.99
70867;HTU21D;58487;53.474;49.470;2023-02-23T11:25:47;-10.38;118.99
70867;HTU21D;58487;53.474;49.470;2023-02-23T11:28:43;-10.29;118.99
70867;HTU21D;58487;53.474;49.470;2023-02-23T11:31:15;-10.19;118.99
70867;HTU21D;58487;53.474;49.470;2023-02-23T11:33:42;-9.98;118.99
70867;HTU21D;58487;53.474;49.470;2023-02-23T11:36:30;-9.85;118.99
70867;HTU21D;58487;53.474;49.470;2023-02-23T11:41:40;-9.73;118.99
70867;HTU21D;58487;53.474;49.470;2023-02-23T11:44:18;-9.78;118.99
70867;HTU21D;58487;53.474;49.470;2023-02-23T11:46:45;-9.49;118.99
70867;HTU21D;58487;53.474;49.470;2023-02-23T11:49:20;-9.49;118.99
70867;HTU21D;58487;53.474;49.470;2023-02-23T11:51:49;-9.09;118.99
70867;HTU21D;58487;53.474;49.470;2023-02-23T11:54:30;-9.24;118.99
70867;HTU21D;58487;53.474;49.470;2023-02-23T11:56:58;-9.29;118.99
70867;HTU21D;58487;53.474;49.470;2023-02-23T11:59:37;-9.12;118.99
70867;HTU21D;58487;53.474;49.470;2023-02-23T12:02:27;-9.07;118.99
70867;HTU21D;58487;53.474;49.470;2023-02-23T12:05:05;-8.96;118.99
70867;HTU21D;58487;53.474;49.470;2023-02-23T12:07:35;-9.22;118.99
70867;HTU21D;58487;53.474;49.470;2023-02-23T12:10:31;-9.39;118.99
70867;HTU21D;58487;53.474;49.470;2023-02-23T12:18:04;-9.68;118.99
70867;HTU21D;58487;53.474;49.470;2023-02-23T12:20:38;-9.51;118.99
70867;HTU21D;58487;53.474;49.470;2023-02-23T12:23:09;-9.43;118.99
70867;HTU21D;58487;53.474;49.470;2023-02-23T12:28:24;-8.77;118.99
70867;HTU21D;58487;53.474;49.470;2023-02-23T12:33:39;-7.59;118.99
70867;HTU21D;58487;53.474;49.470;2023-02-23T12:36:23;-7.07;118.99
70867;HTU21D;58487;53.474;49.470;2023-02-23T12:39:15;-6.47;118.99
70867;HTU21D;58487;53.474;49.470;2023-02-23T12:42:09;-7.09;118.99
70867;HTU21D;58487;53.474;49.470;2023-02-23T12:44:55;-6.87;118.99
70867;HTU21D;58487;53.474;49.470;2023-02-23T12:47:31;-7.09;118.99
70867;HTU21D;58487;53.474;49.470;2023-02-23T12:50:49;-7.46;118.99
70867;HTU21D;58487;53.474;49.470;2023-02-23T12:53:16;-7.13;115.93
70867;HTU21D;58487;53.474;49.470;2023-02-23T13:01:58;-7.09;116.14
70867;HTU21D;58487;53.474;49.470;2023-02-23T13:10:39;-7.54;118.99
70867;HTU21D;58487;53.474;49.470;2023-02-23T13:13:32;-6.95;115.63
70867;HTU21D;58487;53.474;49.470;2023-02-23T13:16:24;-8.12;118.99
70867;HTU21D;58487;53.474;49.470;2023-02-23T13:25:22;-8.55;118.99
70867;HTU21D;58487;53.474;49.470;2023-02-23T13:27:57;-8.68;118.99
70867;HTU21D;58487;53.474;49.470;2023-02-23T13:30:29;-8.51;118.99
70867;HTU21D;58487;53.474;49.470;2023-02-23T13:32:58;-8.37;118.99
70867;HTU21D;58487;53.474;49.470;2023-02-23T13:35:36;-8.40;116.69
70867;HTU21D;58487;53.474;49.470;2023-02-23T13:38:28;-8.70;117.85
70867;HTU21D;58487;53.474;49.470;2023-02-23T13:40:58;-8.92;118.99
70867;HTU21D;58487;53.474;49.470;2023-02-23T13:43:46;-9.04;118.99
70867;HTU21D;58487;53.474;49.470;2023-02-23T13:46:33;-9.09;118.99
70867;HTU21D;58487;53.474;49.470;2023-02-23T13:51:50;-9.39;118.99
70867;HTU21D;58487;53.474;49.470;2023-02-23T13:54:23;-9.44;118.99
70867;HTU21D;58487;53.474;49.470;2023-02-23T13:56:55;-9.52;118.99
70867;HTU21D;58487;53.474;49.470;2023-02-23T13:59:24;-9.75;118.99
70867;HTU21D;58487;53.474;49.470;2023-02-23T14:01:54;-9.88;118.99
70867;HTU21D;58487;53.474;49.470;2023-02-23T14:04:23;-9.88;118.99
70867;HTU21D;58487;53.474;49.470;2023-02-23T14:09:36;-10.28;118.99
70867;HTU21D;58487;53.474;49.470;2023-02-23T14:12:15;-10.21;118.99
70867;HTU21D;58487;53.474;49.470;2023-02-23T14:14:45;-10.35;118.99
70867;HTU21D;58487;53.474;49.470;2023-02-23T14:22:26;-10.44;118.99
70867;HTU21D;58487;53.474;49.470;2023-02-23T14:28:00;-10.57;118.99
70867;HTU21D;58487;53.474;49.470;2023-02-23T14:30:29;-10.44;118.99
70867;HTU21D;58487;53.474;49.470;2023-02-23T14:41:25;-10.63;118.99
70867;HTU21D;58487;53.474;49.470;2023-02-23T14:46:32;-10.53;118.99
70867;HTU21D;58487;53.474;49.470;2023-02-23T14:49:07;-10.66;118.99
70867;HTU21D;58487;53.474;49.470;2023-02-23T14:51:45;-10.65;118.99
70867;HTU21D;58487;53.474;49.470;2023-02-23T14:54:30;-10.60;118.99
70867;HTU21D;58487;53.474;49.470;2023-02-23T14:56:59;-10.62;118.99
70867;HTU21D;58487;53.474;49.470;2023-02-23T14:59:35;-10.75;118.99
70867;HTU21D;58487;53.474;49.470;2023-02-23T15:02:19;-10.73;118.99
70867;HTU21D;58487;53.474;49.470;2023-02-23T15:04:45;-10.68;118.99
70867;HTU21D;58487;53.474;49.470;2023-02-23T15:07:25;-10.73;118.99
70867;HTU21D;58487;53.474;49.470;2023-02-23T15:09:55;-10.74;118.99
70867;HTU21D;58487;53.474;49.470;2023-02-23T15:12:27;-10.87;118.99
70867;HTU21D;58487;53.474;49.470;2023-02-23T15:14:59;-10.80;118.99
70867;HTU21D;58487;53.474;49.470;2023-02-23T15:17:28;-10.68;118.99
70867;HTU21D;58487;53.474;49.470;2023-02-23T15:20:00;-10.70;118.99
70867;HTU21D;58487;53.474;49.470;2023-02-23T15:22:30;-10.52;118.99
70867;HTU21D;58487;53.474;49.470;2023-02-23T15:24:59;-10.50;118.99
70867;HTU21D;58487;53.474;49.470;2023-02-23T15:27:37;-10.51;118.99
70867;HTU21D;58487;53.474;49.470;2023-02-23T15:33:04;-10.74;118.99
70867;HTU21D;58487;53.474;49.470;2023-02-23T15:35:35;-10.75;118.99
70867;HTU21D;58487;53.474;49.470;2023-02-23T15:38:07;-10.64;118.99
70867;HTU21D;58487;53.474;49.470;2023-02-23T15:40:35;-10.62;118.99
70867;HTU21D;58487;53.474;49.470;2023-02-23T15:43:01;-10.72;118.99
70867;HTU21D;58487;53.474;49.470;2023-02-23T15:45:35;-10.71;118.99
70867;HTU21D;58487;53.474;49.470;2023-02-23T15:48:05;-10.72;118.99
70867;HTU21D;58487;53.474;49.470;2023-02-23T15:50:38;-10.82;118.99
70867;HTU21D;58487;53.474;49.470;2023-02-23T15:53:08;-10.89;118.99
70867;HTU21D;58487;53.474;49.470;2023-02-23T15:55:42;-11.01;118.99
70867;HTU21D;58487;53.474;49.470;2023-02-23T15:58:20;-11.11;118.99
70867;HTU21D;58487;53.474;49.470;2023-02-23T16:00:55;-11.05;118.99
70867;HTU21D;58487;53.474;49.470;2023-02-23T16:03:29;-11.25;118.99
70867;HTU21D;58487;53.474;49.470;2023-02-23T16:06:07;-11.30;118.99
70867;HTU21D;58487;53.474;49.470;2023-02-23T16:08:34;-11.36;118.99
70867;HTU21D;58487;53.474;49.470;2023-02-23T16:11:12;-11.50;118.99
70867;HTU21D;58487;53.474;49.470;2023-02-23T16:13:45;-11.56;118.99
70867;HTU21D;58487;53.474;49.470;2023-02-23T16:16:14;-11.51;118.99
70867;HTU21D;58487;53.474;49.470;2023-02-23T16:18:53;-11.51;118.99
70867;HTU21D;58487;53.474;49.470;2023-02-23T16:21:22;-11.49;118.99
70867;HTU21D;58487;53.474;49.470;2023-02-23T16:23:51;-11.52;118.99
70867;HTU21D;58487;53.474;49.470;2023-02-23T16:26:33;-11.56;118.99
70867;HTU21D;58487;53.474;49.470;2023-02-23T16:29:03;-11.71;118.99
70867;HTU21D;58487;53.474;49.470;2023-02-23T16:31:47;-11.73;118.99
70867;HTU21D;58487;53.474;49.470;2023-02-23T16:34:35;-11.66;118.99
70867;HTU21D;58487;53.474;49.470;2023-02-23T16:37:18;-11.58;118.99
70867;HTU21D;58487;53.474;49.470;2023-02-23T16:39:45;-11.55;118.99
70867;HTU21D;58487;53.474;49.470;2023-02-23T16:42:32;-11.56;118.99
70867;HTU21D;58487;53.474;49.470;2023-02-23T16:44:59;-11.62;118.99
70867;HTU21D;58487;53.474;49.470;2023-02-23T16:47:40;-11.64;118.99
70867;HTU21D;58487;53.474;49.470;2023-02-23T16:50:21;-11.62;118.99
70867;HTU21D;58487;53.474;49.470;2023-02-23T16:52:51;-11.67;118.99
70867;HTU21D;58487;53.474;49.470;2023-02-23T16:55:23;-11.70;118.99
70867;HTU21D;58487;53.474;49.470;2023-02-23T16:57:56;-11.70;118.99
70867;HTU21D;58487;53.474;49.470;2023-02-23T17:00:26;-11.78;118.99
70867;HTU21D;58487;53.474;49.470;2023-02-23T17:02:53;-11.90;118.99
70867;HTU21D;58487;53.474;49.470;2023-02-23T17:05:21;-11.88;118.99
70867;HTU21D;58487;53.474;49.470;2023-02-23T17:07:50;-11.92;118.99
70867;HTU21D;58487;53.474;49.470;2023-02-23T17:10:25;-11.93;118.99